Time;durP1;ratioP1;P1;durP2;ratioP2;P2;SDS_P1;SDS_P2;PMS_P1;PMS_P2;Temp;Humidity;BMP_temperature;BMP_pressure;BME280_temperature;BME280_humidity;BME280_pressure;Samples;Min_cycle;Max_cycle;Signal;HPM_P1;HPM_P2
2021/07/10 00:00:37;;;;;;;2.72;2.10;;;20.00;60.60;;;;;;4931059;29;20423;-75
2021/07/10 00:03:05;;;;;;;3.63;2.60;;;20.00;60.70;;;;;;4927673;29;20032;-73
2021/07/10 00:05:31;;;;;;;2.83;2.17;;;20.00;60.70;;;;;;4912750;29;20032;-74
2021/07/10 00:07:57;;;;;;;2.67;2.00;;;20.00;60.70;;;;;;4913285;29;20624;-74
2021/07/10 00:10:23;;;;;;;2.92;2.63;;;20.00;60.80;;;;;;4931206;29;20031;-74
2021/07/10 00:12:49;;;;;;;3.10;2.60;;;19.90;60.60;;;;;;4931247;29;20055;-74
2021/07/10 00:15:18;;;;;;;3.00;2.60;;;19.90;60.70;;;;;;4929949;29;20036;-74
2021/07/10 00:17:44;;;;;;;2.40;2.20;;;19.90;60.70;;;;;;4932099;29;20333;-73
2021/07/10 00:20:12;;;;;;;2.90;2.30;;;19.90;60.80;;;;;;4913371;29;20472;-74
2021/07/10 00:22:39;;;;;;;2.22;2.03;;;19.90;60.80;;;;;;4912358;29;20039;-73
2021/07/10 00:25:07;;;;;;;2.47;2.28;;;19.80;60.70;;;;;;4927048;29;20399;-73
2021/07/10 00:27:34;;;;;;;3.20;2.90;;;19.80;60.70;;;;;;4910200;29;20035;-74
2021/07/10 00:30:01;;;;;;;2.53;2.22;;;19.80;61.30;;;;;;4929295;29;20477;-74
2021/07/10 00:32:26;;;;;;;2.72;2.50;;;19.80;60.80;;;;;;4930635;29;20455;-74
2021/07/10 00:34:52;;;;;;;2.28;2.05;;;19.70;60.60;;;;;;4912728;29;20122;-74
2021/07/10 00:37:18;;;;;;;2.28;1.98;;;19.70;60.70;;;;;;4910540;29;20047;-74
2021/07/10 00:39:45;;;;;;;3.22;2.47;;;19.70;60.70;;;;;;4926434;29;20035;-74
2021/07/10 00:42:11;;;;;;;2.83;2.50;;;19.70;60.70;;;;;;4931119;29;20039;-74
2021/07/10 00:44:37;;;;;;;2.40;2.20;;;19.60;60.60;;;;;;4930895;29;20107;-74
2021/07/10 00:47:03;;;;;;;4.03;2.30;;;19.60;60.60;;;;;;4930963;29;20648;-74
2021/07/10 00:49:29;;;;;;;2.40;2.20;;;19.60;60.70;;;;;;4930459;29;20292;-74
2021/07/10 00:51:55;;;;;;;3.08;2.53;;;19.60;60.70;;;;;;4929812;29;20110;-74
2021/07/10 00:54:21;;;;;;;3.50;2.45;;;19.50;60.60;;;;;;4930519;29;20044;-73
2021/07/10 00:56:48;;;;;;;3.10;2.80;;;19.50;60.60;;;;;;4929993;29;20396;-73
2021/07/10 00:59:16;;;;;;;3.65;2.40;;;19.50;60.70;;;;;;4929005;29;20087;-74
2021/07/10 01:01:43;;;;;;;2.60;2.40;;;19.50;60.70;;;;;;4930825;29;20037;-74
2021/07/10 01:04:09;;;;;;;3.17;2.28;;;19.40;60.60;;;;;;4930675;29;20027;-74
2021/07/10 01:06:35;;;;;;;2.50;2.30;;;19.40;60.60;;;;;;4944929;29;20036;-74
2021/07/10 01:09:02;;;;;;;2.85;2.28;;;19.40;60.70;;;;;;4930168;29;20035;-74
2021/07/10 01:11:28;;;;;;;2.90;2.58;;;19.30;60.60;;;;;;4929518;29;20044;-73
2021/07/10 01:13:54;;;;;;;2.80;2.60;;;19.30;60.70;;;;;;4928726;29;20127;-73
2021/07/10 01:16:20;;;;;;;2.65;2.05;;;19.30;60.70;;;;;;4930435;29;20499;-73
2021/07/10 01:18:46;;;;;;;2.58;2.38;;;19.30;60.70;;;;;;4928395;29;20028;-74
2021/07/10 01:21:12;;;;;;;3.05;2.47;;;19.30;60.80;;;;;;4930215;29;20091;-73
2021/07/10 01:23:38;;;;;;;3.63;2.58;;;19.20;60.60;;;;;;4929912;29;20042;-73
2021/07/10 01:26:03;;;;;;;3.20;2.50;;;19.20;60.70;;;;;;4930010;29;20126;-74
2021/07/10 01:28:29;;;;;;;2.85;2.38;;;19.20;60.80;;;;;;4929695;28;20027;-73
2021/07/10 01:30:55;;;;;;;2.35;2.15;;;19.20;60.80;;;;;;4922381;29;20419;-74
2021/07/10 01:33:21;;;;;;;3.38;2.55;;;19.20;60.90;;;;;;4912025;29;20056;-74
2021/07/10 01:35:47;;;;;;;2.80;2.35;;;19.10;60.70;;;;;;4912423;29;20414;-73
2021/07/10 01:38:14;;;;;;;3.63;2.30;;;19.10;60.70;;;;;;4915466;29;20035;-74
2021/07/10 01:40:41;;;;;;;2.50;2.30;;;19.10;60.80;;;;;;4931511;29;20034;-73
2021/07/10 01:43:07;;;;;;;2.65;2.42;;;19.00;60.60;;;;;;4931528;29;20039;-74
2021/07/10 01:45:34;;;;;;;2.97;2.40;;;19.00;60.70;;;;;;4927170;29;20034;-73
2021/07/10 01:48:00;;;;;;;2.58;2.17;;;19.00;60.70;;;;;;4914120;29;20136;-72
2021/07/10 01:50:26;;;;;;;3.53;2.58;;;19.00;60.80;;;;;;4915737;29;20366;-73
2021/07/10 01:52:53;;;;;;;2.33;2.13;;;18.90;60.60;;;;;;4915310;29;20043;-73
2021/07/10 01:55:19;;;;;;;2.28;2.08;;;18.90;60.60;;;;;;4915218;29;20526;-73
2021/07/10 01:57:51;;;;;;;2.45;2.00;;;18.90;60.70;;;;;;4915293;29;20028;-74
2021/07/10 02:00:18;;;;;;;2.53;2.33;;;18.90;60.80;;;;;;4914271;29;20052;-73
2021/07/10 02:02:44;;;;;;;2.83;2.63;;;18.90;60.80;;;;;;4915249;29;20087;-75
2021/07/10 02:05:12;;;;;;;2.50;2.30;;;18.80;60.70;;;;;;4915057;29;20484;-75
2021/07/10 02:07:39;;;;;;;3.28;2.67;;;18.80;60.70;;;;;;4915188;29;20036;-73
2021/07/10 02:10:07;;;;;;;2.45;2.25;;;18.80;60.70;;;;;;4915090;29;20043;-73
2021/07/10 02:12:33;;;;;;;2.53;2.30;;;18.80;60.80;;;;;;4914910;29;20048;-74
2021/07/10 02:14:59;;;;;;;2.30;2.08;;;18.80;60.80;;;;;;4914875;29;20043;-74
2021/07/10 02:17:25;;;;;;;2.22;2.03;;;18.70;60.70;;;;;;4914652;29;20032;-75
2021/07/10 02:19:51;;;;;;;2.40;2.20;;;18.70;61.20;;;;;;4915083;29;20058;-75
2021/07/10 02:22:17;;;;;;;2.33;2.10;;;18.70;60.70;;;;;;4913926;29;20063;-75
2021/07/10 02:24:43;;;;;;;2.33;2.13;;;18.70;60.80;;;;;;4914842;29;20028;-73
2021/07/10 02:27:08;;;;;;;3.90;2.95;;;18.70;60.80;;;;;;4915245;29;20028;-73
2021/07/10 02:29:34;;;;;;;3.60;2.80;;;18.70;60.80;;;;;;4928811;29;20036;-74
2021/07/10 02:32:00;;;;;;;3.28;2.80;;;18.70;60.90;;;;;;4915049;29;20032;-74
2021/07/10 02:34:26;;;;;;;2.38;2.17;;;18.60;60.70;;;;;;4914509;29;20078;-74
2021/07/10 02:36:53;;;;;;;2.90;2.50;;;18.60;60.70;;;;;;4914555;29;20043;-75
2021/07/10 02:39:19;;;;;;;3.33;2.97;;;18.60;60.80;;;;;;4914708;29;20036;-74
2021/07/10 02:41:45;;;;;;;2.60;2.15;;;18.60;60.80;;;;;;4915217;29;20036;-76
2021/07/10 02:44:12;;;;;;;2.50;2.30;;;18.50;60.70;;;;;;4914466;29;20064;-73
2021/07/10 02:46:38;;;;;;;3.47;2.40;;;18.50;60.70;;;;;;4914485;29;20028;-74
2021/07/10 02:49:07;;;;;;;2.28;2.08;;;18.50;60.80;;;;;;4914580;29;20127;-74
2021/07/10 02:51:32;;;;;;;3.22;2.90;;;18.50;60.80;;;;;;4914881;29;20115;-74
2021/07/10 02:53:58;;;;;;;2.75;2.25;;;18.50;60.90;;;;;;4914524;29;20115;-73
2021/07/10 02:56:25;;;;;;;4.47;2.72;;;18.50;60.90;;;;;;4913567;29;20099;-76
2021/07/10 02:58:52;;;;;;;2.95;2.67;;;18.40;60.80;;;;;;4913860;29;20516;-74
2021/07/10 03:01:19;;;;;;;2.20;2.00;;;18.40;60.80;;;;;;4914656;29;20260;-74
2021/07/10 03:03:45;;;;;;;3.53;2.70;;;18.30;60.70;;;;;;4914498;29;20040;-73
2021/07/10 03:06:12;;;;;;;3.42;3.13;;;18.30;60.80;;;;;;4913184;29;20032;-73
2021/07/10 03:08:39;;;;;;;2.92;2.63;;;18.30;60.80;;;;;;4914630;29;20403;-76
2021/07/10 03:11:06;;;;;;;2.92;2.72;;;18.30;61.10;;;;;;4928660;29;20028;-77
2021/07/10 03:13:32;;;;;;;4.80;3.10;;;18.30;60.90;;;;;;4929122;29;20076;-74
2021/07/10 03:15:57;;;;;;;2.60;2.40;;;18.30;61.00;;;;;;4914550;29;20095;-76
2021/07/10 03:18:23;;;;;;;2.50;2.30;;;18.20;60.90;;;;;;4913443;29;20481;-75
2021/07/10 03:20:49;;;;;;;3.22;2.92;;;18.20;60.90;;;;;;4914233;29;20484;-76
2021/07/10 03:23:15;;;;;;;2.95;2.65;;;18.20;60.90;;;;;;4928953;29;20122;-74
2021/07/10 03:25:43;;;;;;;3.25;2.95;;;18.20;60.90;;;;;;4914079;29;20096;-74
2021/07/10 03:28:10;;;;;;;3.35;2.58;;;18.20;61.60;;;;;;4913971;29;20032;-75
2021/07/10 03:30:36;;;;;;;3.17;2.88;;;18.10;60.80;;;;;;4912185;29;20133;-73
2021/07/10 03:33:02;;;;;;;3.30;2.95;;;18.10;60.90;;;;;;4915150;29;20083;-74
2021/07/10 03:35:28;;;;;;;3.22;2.88;;;18.10;60.90;;;;;;4916594;29;20032;-73
2021/07/10 03:37:57;;;;;;;2.65;2.30;;;18.10;61.60;;;;;;4917332;29;20559;-73
2021/07/10 03:40:25;;;;;;;2.72;2.50;;;18.10;61.00;;;;;;4932220;29;20039;-73
2021/07/10 03:42:51;;;;;;;2.60;2.40;;;18.10;61.00;;;;;;4917699;29;20036;-73
2021/07/10 03:45:18;;;;;;;3.30;2.80;;;18.10;61.10;;;;;;4917491;29;20075;-73
2021/07/10 03:47:44;;;;;;;3.67;2.58;;;18.00;60.90;;;;;;4917418;29;20075;-73
2021/07/10 03:50:12;;;;;;;2.67;2.38;;;18.00;61.00;;;;;;4917550;29;20061;-73
2021/07/10 03:52:39;;;;;;;2.72;2.53;;;18.00;61.10;;;;;;4917806;29;20461;-73
2021/07/10 03:55:07;;;;;;;2.85;2.53;;;18.00;61.10;;;;;;4917350;29;20032;-73
2021/07/10 03:57:34;;;;;;;2.60;2.38;;;18.00;61.20;;;;;;4917400;29;20044;-73
2021/07/10 04:00:01;;;;;;;3.10;2.80;;;18.00;61.20;;;;;;4916682;29;20043;-73
2021/07/10 04:02:26;;;;;;;2.75;2.55;;;17.90;61.10;;;;;;4917409;29;20079;-73
2021/07/10 04:04:52;;;;;;;5.93;3.45;;;18.00;61.30;;;;;;4917289;29;20028;-73
2021/07/10 04:07:18;;;;;;;3.42;2.80;;;17.90;61.10;;;;;;4915712;29;20130;-73
2021/07/10 04:09:44;;;;;;;2.70;2.50;;;17.90;61.20;;;;;;4915550;29;20039;-73
2021/07/10 04:12:10;;;;;;;2.70;2.50;;;17.90;61.20;;;;;;4917042;29;20052;-72
2021/07/10 04:14:37;;;;;;;2.95;2.75;;;17.80;61.10;;;;;;4916939;29;20111;-74
2021/07/10 04:17:06;;;;;;;5.30;3.22;;;17.90;61.30;;;;;;4915705;29;20046;-74
2021/07/10 04:19:32;;;;;;;3.78;2.42;;;17.80;61.20;;;;;;4917269;29;20088;-74
2021/07/10 04:21:58;;;;;;;2.65;2.45;;;17.80;61.20;;;;;;4915725;29;20036;-74
2021/07/10 04:24:24;;;;;;;4.00;3.00;;;17.80;61.30;;;;;;4916851;29;20067;-74
2021/07/10 04:26:50;;;;;;;3.10;2.80;;;17.80;61.30;;;;;;4916992;29;20138;-73
2021/07/10 04:29:16;;;;;;;3.75;2.60;;;17.80;61.30;;;;;;4916250;29;20391;-74
2021/07/10 04:31:42;;;;;;;3.88;2.58;;;17.80;61.40;;;;;;4916659;29;20032;-73
2021/07/10 04:34:08;;;;;;;2.95;2.70;;;17.80;61.40;;;;;;4916752;29;20059;-73
2021/07/10 04:36:34;;;;;;;2.60;2.40;;;17.80;61.50;;;;;;4916394;29;20071;-73
2021/07/10 04:39:00;;;;;;;2.63;2.42;;;17.80;61.50;;;;;;4916592;29;20062;-74
2021/07/10 04:41:26;;;;;;;2.47;2.28;;;17.80;61.50;;;;;;4916380;29;20092;-73
2021/07/10 04:43:52;;;;;;;2.75;2.55;;;17.80;61.50;;;;;;4916732;29;20455;-73
2021/07/10 04:46:18;;;;;;;2.58;2.38;;;17.70;61.40;;;;;;4915640;29;20131;-73
2021/07/10 04:48:44;;;;;;;2.72;2.40;;;17.70;61.50;;;;;;4912230;29;20032;-72
2021/07/10 04:51:10;;;;;;;2.80;2.60;;;17.70;61.50;;;;;;4927313;29;20036;-73
2021/07/10 04:53:36;;;;;;;2.67;2.30;;;17.70;61.50;;;;;;4913228;29;20396;-73
2021/07/10 04:56:02;;;;;;;3.03;2.63;;;17.70;61.50;;;;;;4912432;29;20035;-72
2021/07/10 04:58:28;;;;;;;3.30;2.80;;;17.70;61.50;;;;;;4921360;29;20054;-72
2021/07/10 05:00:54;;;;;;;2.90;2.70;;;17.70;61.60;;;;;;4930068;29;20555;-73
2021/07/10 05:03:20;;;;;;;2.35;2.15;;;17.70;61.60;;;;;;4919403;29;20036;-72
2021/07/10 05:05:46;;;;;;;5.82;2.90;;;17.70;61.60;;;;;;4912049;29;20061;-73
2021/07/10 05:08:12;;;;;;;2.30;2.00;;;17.70;61.70;;;;;;4928829;29;20035;-73
2021/07/10 05:10:38;;;;;;;2.90;2.40;;;17.70;61.70;;;;;;4930640;29;20251;-73
2021/07/10 05:13:04;;;;;;;3.85;2.08;;;17.70;61.70;;;;;;4928936;29;20471;-73
2021/07/10 05:15:30;;;;;;;3.55;2.88;;;17.70;61.70;;;;;;4929713;29;20134;-74
2021/07/10 05:17:56;;;;;;;2.72;2.20;;;17.70;61.70;;;;;;4929807;29;20118;-73
2021/07/10 05:20:22;;;;;;;2.20;2.10;;;17.70;61.80;;;;;;4930183;29;20036;-73
2021/07/10 05:22:48;;;;;;;3.92;2.50;;;17.70;61.80;;;;;;4929990;29;20039;-73
2021/07/10 05:25:15;;;;;;;2.28;2.08;;;17.70;61.90;;;;;;4929884;29;20059;-73
2021/07/10 05:27:42;;;;;;;2.38;2.00;;;17.70;61.80;;;;;;4928995;29;20034;-72
2021/07/10 05:30:10;;;;;;;2.47;2.28;;;17.70;61.90;;;;;;4930130;29;20075;-72
2021/07/10 05:32:36;;;;;;;2.53;2.33;;;17.70;61.90;;;;;;4927620;29;20031;-74
2021/07/10 05:35:04;;;;;;;2.47;2.28;;;17.70;61.90;;;;;;4928361;29;20372;-72
2021/07/10 05:37:30;;;;;;;1.88;1.77;;;17.80;62.10;;;;;;4929393;29;20040;-73
2021/07/10 05:39:56;;;;;;;2.10;2.00;;;17.80;62.10;;;;;;4928272;29;20078;-72
2021/07/10 05:42:22;;;;;;;2.50;2.30;;;17.80;62.10;;;;;;4928828;29;20083;-73
2021/07/10 05:44:48;;;;;;;2.60;2.38;;;17.80;62.10;;;;;;4927906;29;20085;-73
2021/07/10 05:47:14;;;;;;;2.45;2.25;;;17.80;62.10;;;;;;4928644;29;20040;-73
2021/07/10 05:49:40;;;;;;;2.70;2.38;;;17.80;62.10;;;;;;4928913;29;20035;-73
2021/07/10 05:52:06;;;;;;;2.85;2.40;;;17.80;62.10;;;;;;4929327;29;20039;-74
2021/07/10 05:54:33;;;;;;;2.40;2.03;;;17.80;62.10;;;;;;4929584;29;20051;-74
2021/07/10 05:56:59;;;;;;;2.17;1.98;;;17.90;62.30;;;;;;4928940;29;20040;-74
2021/07/10 05:59:24;;;;;;;4.90;2.20;;;17.90;62.30;;;;;;4929380;29;20032;-73
2021/07/10 06:01:50;;;;;;;2.65;2.17;;;17.90;62.30;;;;;;4926790;29;20510;-73
2021/07/10 06:04:16;;;;;;;2.20;2.00;;;17.90;62.80;;;;;;4928562;29;20035;-73
2021/07/10 06:06:43;;;;;;;2.33;2.00;;;17.90;62.30;;;;;;4929370;29;20028;-74
2021/07/10 06:09:09;;;;;;;2.40;2.20;;;17.90;62.30;;;;;;4928500;29;20035;-74
2021/07/10 06:11:35;;;;;;;2.58;2.20;;;17.90;62.30;;;;;;4929228;29;20838;-74
2021/07/10 06:14:03;;;;;;;2.10;1.90;;;18.00;62.40;;;;;;4928671;29;20060;-74
2021/07/10 06:16:29;;;;;;;2.17;1.98;;;17.90;62.30;;;;;;4918394;29;20142;-74
2021/07/10 06:18:55;;;;;;;2.25;2.03;;;18.00;62.40;;;;;;4923260;29;20032;-74
2021/07/10 06:21:21;;;;;;;2.97;1.80;;;17.90;62.20;;;;;;4929031;29;20501;-74
2021/07/10 06:23:49;;;;;;;2.20;2.00;;;17.90;62.30;;;;;;4927514;29;20027;-73
2021/07/10 06:26:15;;;;;;;1.58;1.48;;;17.90;62.20;;;;;;4929471;29;20083;-78
2021/07/10 06:28:41;;;;;;;1.73;1.63;;;18.00;62.40;;;;;;4929029;29;20093;-77
2021/07/10 06:31:07;;;;;;;3.20;1.85;;;17.90;62.30;;;;;;4927720;29;20473;-74
2021/07/10 06:33:33;;;;;;;1.85;1.65;;;17.90;62.30;;;;;;4911945;29;20031;-74
2021/07/10 06:35:59;;;;;;;1.85;1.75;;;18.00;62.40;;;;;;4908065;29;20112;-76
2021/07/10 06:38:24;;;;;;;2.35;2.15;;;18.00;62.50;;;;;;4918875;29;20123;-76
2021/07/10 06:40:50;;;;;;;1.67;1.58;;;18.00;62.50;;;;;;4927644;29;20036;-74
2021/07/10 06:43:16;;;;;;;3.10;2.22;;;18.00;62.50;;;;;;4928761;29;20420;-74
2021/07/10 06:45:42;;;;;;;1.75;1.63;;;18.00;62.50;;;;;;4928371;29;20031;-74
2021/07/10 06:48:08;;;;;;;1.90;1.80;;;18.00;62.40;;;;;;4928721;29;20036;-74
2021/07/10 06:50:34;;;;;;;1.90;1.65;;;18.10;62.60;;;;;;4928747;29;20106;-74
2021/07/10 06:53:00;;;;;;;2.17;1.75;;;18.10;63.20;;;;;;4926533;29;20031;-73
2021/07/10 06:55:26;;;;;;;2.15;1.60;;;18.10;62.60;;;;;;4911808;29;20044;-75
2021/07/10 06:57:52;;;;;;;1.80;1.70;;;18.20;62.80;;;;;;4928713;29;20024;-77
2021/07/10 07:00:19;;;;;;;3.38;1.85;;;18.20;62.70;;;;;;4928174;29;20042;-76
2021/07/10 07:02:46;;;;;;;1.80;1.50;;;18.20;62.70;;;;;;4927907;29;20035;-74
2021/07/10 07:05:12;;;;;;;1.98;1.60;;;18.20;62.70;;;;;;4942985;29;20036;-75
2021/07/10 07:07:39;;;;;;;1.75;1.63;;;18.30;62.90;;;;;;4925891;29;20035;-78
2021/07/10 07:10:07;;;;;;;2.05;1.60;;;18.30;62.80;;;;;;4933132;29;20042;-75
2021/07/10 07:12:34;;;;;;;1.75;1.63;;;18.30;62.80;;;;;;4926571;29;20051;-75
2021/07/10 07:15:00;;;;;;;1.63;1.52;;;18.40;62.90;;;;;;4932446;29;20038;-74
2021/07/10 07:17:26;;;;;;;2.00;1.73;;;18.40;62.90;;;;;;4930920;29;20048;-74
2021/07/10 07:19:52;;;;;;;1.50;1.40;;;18.40;62.80;;;;;;4932652;29;20038;-75
2021/07/10 07:22:18;;;;;;;1.73;1.60;;;18.50;63.00;;;;;;4932819;29;20031;-74
2021/07/10 07:24:44;;;;;;;1.73;1.63;;;18.50;62.90;;;;;;4932125;29;20040;-75
2021/07/10 07:27:10;;;;;;;1.40;1.30;;;18.60;63.10;;;;;;4932265;29;20390;-77
2021/07/10 07:29:36;;;;;;;2.47;1.70;;;18.60;63.00;;;;;;4931735;29;20040;-75
2021/07/10 07:32:04;;;;;;;1.58;1.48;;;18.60;63.20;;;;;;4930688;29;20043;-77
2021/07/10 07:34:30;;;;;;;1.83;1.70;;;18.70;63.70;;;;;;4930369;29;20500;-76
2021/07/10 07:36:56;;;;;;;1.70;1.52;;;18.80;63.80;;;;;;4930908;29;20126;-76
2021/07/10 07:39:22;;;;;;;1.73;1.35;;;18.80;63.80;;;;;;4932087;29;20036;-78
2021/07/10 07:41:49;;;;;;;1.77;1.45;;;18.90;64.00;;;;;;4930655;29;20415;-76
2021/07/10 07:44:15;;;;;;;1.42;1.33;;;18.90;63.90;;;;;;4930762;29;20023;-76
2021/07/10 07:46:41;;;;;;;1.80;1.60;;;19.00;64.00;;;;;;4931349;29;20036;-76
2021/07/10 07:49:07;;;;;;;1.55;1.45;;;19.10;64.10;;;;;;4946159;29;20119;-77
2021/07/10 07:51:33;;;;;;;1.85;1.63;;;19.20;64.20;;;;;;4932388;29;20043;-77
2021/07/10 07:53:59;;;;;;;1.63;1.35;;;19.30;64.20;;;;;;4931774;29;20044;-78
2021/07/10 07:56:26;;;;;;;1.58;1.48;;;19.40;64.30;;;;;;4930794;29;20473;-77
2021/07/10 07:58:52;;;;;;;1.30;1.20;;;19.50;64.30;;;;;;4923762;29;20114;-76
2021/07/10 08:01:19;;;;;;;1.50;1.40;;;19.50;64.20;;;;;;4911132;29;20050;-76
2021/07/10 08:03:47;;;;;;;1.70;1.60;;;19.60;64.30;;;;;;4911461;29;20075;-75
2021/07/10 08:06:13;;;;;;;1.65;1.55;;;19.70;64.30;;;;;;4908041;29;20058;-76
2021/07/10 08:08:39;;;;;;;1.48;1.20;;;19.80;64.40;;;;;;4909926;29;20031;-75
2021/07/10 08:11:07;;;;;;;2.05;1.52;;;19.90;64.40;;;;;;4910887;29;20034;-75
2021/07/10 08:13:33;;;;;;;1.30;1.15;;;20.00;64.50;;;;;;4939329;29;20387;-77
2021/07/10 08:16:00;;;;;;;1.60;1.35;;;20.10;64.50;;;;;;4930902;29;20082;-76
2021/07/10 08:18:26;;;;;;;2.25;1.50;;;20.20;64.50;;;;;;4930040;29;20542;-75
2021/07/10 08:20:53;;;;;;;1.67;1.50;;;20.20;64.40;;;;;;4928836;29;20074;-74
2021/07/10 08:23:19;;;;;;;2.03;1.17;;;20.30;64.40;;;;;;4930774;29;20484;-77
2021/07/10 08:25:46;;;;;;;2.90;1.30;;;20.40;64.50;;;;;;4930606;29;20475;-75
2021/07/10 08:28:13;;;;;;;1.40;1.30;;;20.50;64.50;;;;;;4929633;29;20038;-75
2021/07/10 08:30:38;;;;;;;1.20;1.10;;;20.60;64.60;;;;;;4930922;29;20034;-75
2021/07/10 08:33:05;;;;;;;1.45;1.30;;;20.70;64.60;;;;;;4930624;29;20044;-76
2021/07/10 08:35:31;;;;;;;1.35;1.20;;;20.80;64.60;;;;;;4930384;29;20031;-75
2021/07/10 08:37:57;;;;;;;2.80;1.42;;;20.90;64.60;;;;;;4919029;29;20032;-75
2021/07/10 08:40:23;;;;;;;1.27;1.13;;;21.00;64.60;;;;;;4930462;29;20034;-74
2021/07/10 08:42:50;;;;;;;1.50;1.40;;;21.00;64.40;;;;;;4929237;29;20507;-74
2021/07/10 08:45:16;;;;;;;1.20;1.10;;;21.10;64.50;;;;;;4930941;29;20032;-76
2021/07/10 08:47:43;;;;;;;1.42;1.33;;;21.20;64.50;;;;;;4930672;29;20039;-76
2021/07/10 08:50:18;;;;;;;1.55;1.10;;;21.30;64.50;;;;;;4930275;29;20034;-76
2021/07/10 08:52:45;;;;;;;1.27;1.17;;;21.40;64.50;;;;;;4928562;29;20074;-76
2021/07/10 08:55:13;;;;;;;2.15;1.30;;;21.40;64.30;;;;;;4930047;29;20034;-75
2021/07/10 08:57:39;;;;;;;1.83;1.30;;;21.50;64.30;;;;;;4929301;29;20063;-74
2021/07/10 09:00:14;;;;;;;1.30;1.10;;;21.70;64.60;;;;;;4929560;29;20122;-77
2021/07/10 09:02:43;;;;;;;1.30;1.20;;;21.80;64.50;;;;;;4930051;29;20035;-75
2021/07/10 09:05:09;;;;;;;1.73;1.20;;;21.90;64.50;;;;;;4928325;29;20056;-74
2021/07/10 09:08:16;;;;;;;1.30;1.20;;;21.90;64.30;;;;;;4928709;29;20195;-76
2021/07/10 09:10:45;;;;;;;2.08;1.50;;;22.00;64.30;;;;;;4930135;29;20028;-75
2021/07/10 09:13:13;;;;;;;1.33;1.23;;;22.00;64.20;;;;;;4930381;29;20076;-75
2021/07/10 09:15:39;;;;;;;1.95;1.25;;;22.10;64.30;;;;;;4930460;29;20032;-75
2021/07/10 09:18:10;;;;;;;1.20;1.10;;;22.10;64.20;;;;;;4930349;29;20443;-75
2021/07/10 09:20:37;;;;;;;1.70;1.17;;;22.10;64.10;;;;;;4930004;29;20031;-75
2021/07/10 09:23:32;;;;;;;1.15;1.05;;;22.20;64.10;;;;;;4929930;29;20072;-75
2021/07/10 09:26:18;;;;;;;1.38;1.20;;;22.20;64.00;;;;;;4928402;29;20039;-74
2021/07/10 09:28:59;;;;;;;1.25;1.02;;;22.30;64.10;;;;;;4929728;29;20571;-75
2021/07/10 09:31:31;;;;;;;1.35;1.25;;;22.20;63.90;;;;;;4928740;29;20032;-74
2021/07/10 09:34:05;;;;;;;1.10;1.02;;;22.20;63.80;;;;;;4928270;29;20489;-76
2021/07/10 09:36:32;;;;;;;1.48;1.38;;;22.20;63.80;;;;;;4929235;29;20043;-75
2021/07/10 09:38:59;;;;;;;1.40;1.30;;;22.20;63.80;;;;;;4929730;29;20032;-79
2021/07/10 09:41:31;;;;;;;1.17;1.08;;;22.20;63.70;;;;;;4930529;29;20210;-76
2021/07/10 09:44:09;;;;;;;0.80;0.80;;;22.10;63.50;;;;;;4930038;29;20035;-76
2021/07/10 09:46:36;;;;;;;1.35;1.25;;;22.10;63.50;;;;;;4928819;29;20428;-75
2021/07/10 09:49:22;;;;;;;1.27;1.17;;;22.10;63.50;;;;;;4929374;29;20075;-73
2021/07/10 09:51:55;;;;;;;1.70;1.25;;;22.10;63.50;;;;;;4929335;29;20024;-74
2021/07/10 09:54:28;;;;;;;1.10;1.00;;;22.10;63.40;;;;;;4928859;29;20036;-75
2021/07/10 09:57:04;;;;;;;1.02;0.93;;;22.10;63.40;;;;;;4929353;29;20256;-74
2021/07/10 09:59:33;;;;;;;1.23;1.10;;;22.10;63.40;;;;;;4928924;29;20063;-76
2021/07/10 10:02:00;;;;;;;1.10;1.00;;;22.10;63.40;;;;;;4929611;29;20031;-74
2021/07/10 10:04:32;;;;;;;0.93;0.93;;;22.00;63.20;;;;;;4926865;29;20032;-75
2021/07/10 10:07:00;;;;;;;1.00;0.90;;;22.00;63.20;;;;;;4929334;29;20102;-75
2021/07/10 10:09:28;;;;;;;1.33;1.20;;;21.90;63.10;;;;;;4928189;29;20063;-75
2021/07/10 10:12:11;;;;;;;1.13;0.93;;;21.90;63.10;;;;;;4928655;29;20503;-77
2021/07/10 10:14:44;;;;;;;1.48;1.23;;;21.90;63.10;;;;;;4929253;29;20031;-76
2021/07/10 10:17:11;;;;;;;1.00;1.00;;;21.90;63.20;;;;;;4927910;29;20483;-77
2021/07/10 10:19:42;;;;;;;1.10;1.00;;;21.90;63.20;;;;;;4927725;29;20361;-76
2021/07/10 10:22:10;;;;;;;0.88;0.88;;;21.80;63.00;;;;;;4929183;29;20035;-78
2021/07/10 10:24:38;;;;;;;1.48;1.10;;;21.80;63.10;;;;;;4929256;29;20480;-77
2021/07/10 10:27:05;;;;;;;0.80;0.80;;;21.80;63.10;;;;;;4928974;29;20150;-76
2021/07/10 10:29:32;;;;;;;0.70;0.70;;;21.80;63.20;;;;;;4929170;29;20035;-74
2021/07/10 10:31:58;;;;;;;5.47;1.02;;;21.80;63.20;;;;;;4943076;29;20392;-75
2021/07/10 10:34:25;;;;;;;2.88;1.20;;;21.90;63.40;;;;;;4926778;29;20507;-78
2021/07/10 10:36:53;;;;;;;1.38;1.00;;;22.00;63.80;;;;;;4927596;29;20067;-74
2021/07/10 10:39:25;;;;;;;3.22;1.25;;;22.10;64.00;;;;;;4928560;29;20035;-75
2021/07/10 10:42:21;;;;;;;0.95;0.95;;;22.30;64.30;;;;;;4908006;29;20464;-76
2021/07/10 10:44:49;;;;;;;1.00;0.90;;;22.50;64.30;;;;;;4907408;29;20040;-75
2021/07/10 10:47:15;;;;;;;1.13;1.02;;;22.50;64.00;;;;;;4909475;29;20072;-74
2021/07/10 10:49:50;;;;;;;2.35;1.20;;;22.60;64.00;;;;;;4927503;29;20036;-74
2021/07/10 10:52:34;;;;;;;1.33;1.17;;;22.60;63.80;;;;;;4910752;29;20107;-74
2021/07/10 10:55:15;;;;;;;1.83;1.08;;;22.60;63.80;;;;;;4928710;29;20036;-74
2021/07/10 10:57:54;;;;;;;0.95;0.85;;;22.60;63.70;;;;;;4922606;29;20040;-76
2021/07/10 11:00:23;;;;;;;1.23;1.02;;;22.60;63.70;;;;;;4943640;29;20028;-75
2021/07/10 11:02:49;;;;;;;1.10;0.90;;;22.50;63.60;;;;;;4928449;29;20123;-77
2021/07/10 11:05:16;;;;;;;1.75;0.80;;;22.50;63.60;;;;;;4926909;29;20192;-76
2021/07/10 11:07:42;;;;;;;1.40;1.02;;;22.50;63.70;;;;;;4927498;29;20440;-75
2021/07/10 11:10:14;;;;;;;1.48;1.05;;;22.50;63.70;;;;;;4928416;29;20119;-76
2021/07/10 11:12:46;;;;;;;1.42;1.02;;;22.50;63.70;;;;;;4925725;29;20055;-82
2021/07/10 11:15:24;;;;;;;1.08;0.98;;;22.50;63.80;;;;;;4927486;29;20532;-76
2021/07/10 11:17:55;;;;;;;2.45;1.30;;;22.50;63.70;;;;;;4927141;29;20044;-75
2021/07/10 11:20:48;;;;;;;1.10;1.00;;;22.60;63.80;;;;;;4921900;29;20715;-75
2021/07/10 11:23:28;;;;;;;1.15;1.05;;;22.60;63.70;;;;;;4904986;29;20052;-77
2021/07/10 11:25:58;;;;;;;1.05;1.00;;;22.70;63.70;;;;;;4899945;29;20195;-79
2021/07/10 11:28:30;;;;;;;0.80;0.80;;;22.80;63.80;;;;;;4906481;29;20187;-78
2021/07/10 11:31:00;;;;;;;0.90;0.90;;;22.90;63.90;;;;;;4928648;29;20035;-79
2021/07/10 11:33:57;;;;;;;1.05;1.02;;;22.90;63.70;;;;;;4928655;29;20064;-77
2021/07/10 11:36:35;;;;;;;1.13;0.95;;;23.00;63.80;;;;;;4929002;29;20083;-81
2021/07/10 11:39:32;;;;;;;1.02;0.90;;;23.10;63.80;;;;;;4928905;29;20038;-78
2021/07/10 11:42:25;;;;;;;1.40;1.30;;;23.10;64.20;;;;;;4928874;29;20032;-77
2021/07/10 11:45:14;;;;;;;0.97;0.93;;;23.20;63.70;;;;;;4928456;29;20038;-73
2021/07/10 11:47:43;;;;;;;1.13;1.10;;;23.20;63.50;;;;;;4926201;29;20275;-76
2021/07/10 11:50:17;;;;;;;2.75;1.20;;;23.20;63.50;;;;;;4927195;29;20043;-76
2021/07/10 11:53:05;;;;;;;2.70;1.10;;;23.20;63.50;;;;;;4927092;29;20039;-79
2021/07/10 11:55:35;;;;;;;1.50;1.40;;;23.20;63.50;;;;;;4931013;29;20126;-77
2021/07/10 11:58:23;;;;;;;6.75;1.90;;;23.20;63.40;;;;;;4931265;29;20376;-77
2021/07/10 12:00:49;;;;;;;1.80;1.38;;;23.20;63.40;;;;;;4931451;29;20031;-77
2021/07/10 12:03:23;;;;;;;5.43;1.50;;;23.20;63.50;;;;;;4931262;29;20036;-78
2021/07/10 12:05:51;;;;;;;3.40;1.27;;;23.30;63.80;;;;;;4931272;29;20044;-76
2021/07/10 12:08:20;;;;;;;2.65;1.17;;;23.30;63.70;;;;;;4931229;29;20038;-76
2021/07/10 12:10:49;;;;;;;3.55;1.45;;;23.30;63.70;;;;;;4944544;29;20027;-76
2021/07/10 12:13:19;;;;;;;3.05;1.40;;;23.40;63.90;;;;;;4931403;29;20048;-77
2021/07/10 12:15:52;;;;;;;2.95;1.30;;;23.50;63.90;;;;;;4930073;29;20067;-76
2021/07/10 12:18:22;;;;;;;3.20;1.50;;;23.50;63.80;;;;;;4931610;29;20046;-77
2021/07/10 12:20:55;;;;;;;2.40;1.17;;;23.60;64.30;;;;;;4921164;29;20496;-78
2021/07/10 12:23:21;;;;;;;3.28;1.38;;;23.70;63.90;;;;;;4913473;29;20100;-78
2021/07/10 12:25:59;;;;;;;1.92;1.30;;;23.70;63.80;;;;;;4895386;29;20488;-78
2021/07/10 12:28:35;;;;;;;1.60;1.33;;;23.70;63.70;;;;;;4920094;29;20035;-78
2021/07/10 12:31:12;;;;;;;3.05;1.15;;;23.80;63.80;;;;;;4931349;29;20028;-77
2021/07/10 12:33:43;;;;;;;1.75;1.10;;;23.80;63.70;;;;;;4930865;29;20039;-76
2021/07/10 12:36:14;;;;;;;2.10;1.33;;;23.80;63.60;;;;;;4929204;29;20035;-79
2021/07/10 12:39:04;;;;;;;5.03;1.20;;;23.80;63.60;;;;;;4931078;29;20171;-77
2021/07/10 12:41:39;;;;;;;2.15;1.20;;;23.80;63.50;;;;;;4931240;29;20028;-78
2021/07/10 12:44:20;;;;;;;1.25;1.15;;;23.90;63.60;;;;;;4914447;29;20122;-78
2021/07/10 12:46:48;;;;;;;1.27;1.15;;;23.80;63.30;;;;;;4912235;29;20035;-76
2021/07/10 12:49:16;;;;;;;1.23;1.13;;;23.80;63.30;;;;;;4924784;29;20036;-77
2021/07/10 12:51:43;;;;;;;1.77;1.13;;;23.80;63.20;;;;;;4929509;29;20136;-80
2021/07/10 12:54:31;;;;;;;1.48;1.00;;;23.90;63.40;;;;;;4930019;29;20042;-78